Time;durP1;ratioP1;P1;durP2;ratioP2;P2;SDS_P1;SDS_P2;PMS_P1;PMS_P2;Temp;Humidity;BMP_temperature;BMP_pressure;BME280_temperature;BME280_humidity;BME280_pressure;Samples;Min_cycle;Max_cycle;Signal;HPM_P1;HPM_P2
2022/01/31 00:02:13;;;;;;;21.40;6.68;;;;;;;4.18;75.65;101406.22;5072380;28;20052;-74
2022/01/31 00:04:38;;;;;;;20.50;6.72;;;;;;;4.14;75.34;101378.13;5074737;28;20040;-74
2022/01/31 00:07:04;;;;;;;30.67;7.13;;;;;;;4.19;75.52;101367.72;5074741;28;20028;-72
2022/01/31 00:09:30;;;;;;;27.85;7.07;;;;;;;4.17;76.24;101341.13;5074817;28;20040;-74
2022/01/31 00:12:00;;;;;;;24.88;6.88;;;;;;;4.18;75.89;101321.38;5074679;28;20033;-72
2022/01/31 00:14:39;;;;;;;26.08;7.15;;;;;;;4.19;76.17;101327.53;5074812;28;20370;-73
2022/01/31 00:17:06;;;;;;;25.35;7.07;;;;;;;4.13;76.50;101317.53;5074605;28;20036;-72
2022/01/31 00:19:32;;;;;;;22.60;6.90;;;;;;;4.18;76.78;101315.16;5074741;28;20082;-72
2022/01/31 00:21:58;;;;;;;22.58;6.40;;;;;;;4.20;76.70;101303.25;5074146;28;20373;-72
2022/01/31 00:24:24;;;;;;;24.52;6.72;;;;;;;4.22;76.27;101300.41;5074638;28;20035;-72
2022/01/31 00:26:49;;;;;;;21.13;7.43;;;;;;;4.25;76.36;101300.06;5106918;28;20028;-72
2022/01/31 00:29:15;;;;;;;21.58;6.22;;;;;;;4.26;76.69;101280.31;5074074;28;20025;-72
2022/01/31 00:31:40;;;;;;;24.23;6.15;;;;;;;4.30;76.78;101273.59;5074765;28;20506;-72
2022/01/31 00:34:05;;;;;;;25.08;6.97;;;;;;;4.28;76.96;101262.22;5073922;28;20029;-72
2022/01/31 00:36:31;;;;;;;21.77;6.53;;;;;;;4.26;77.51;101253.53;5073032;28;20056;-73
2022/01/31 00:38:56;;;;;;;20.95;6.30;;;;;;;4.26;78.13;101232.91;5072845;28;20067;-72
2022/01/31 00:41:21;;;;;;;21.33;6.28;;;;;;;4.27;78.35;101228.38;5074299;28;20033;-72
2022/01/31 00:43:57;;;;;;;22.92;6.60;;;;;;;4.24;78.68;101215.34;5073660;28;20089;-72
2022/01/31 00:46:28;;;;;;;20.08;6.05;;;;;;;4.23;80.15;101194.94;5074294;28;20032;-72
2022/01/31 00:48:53;;;;;;;24.73;6.43;;;;;;;4.23;79.87;101194.94;5074148;28;20028;-71
2022/01/31 00:51:19;;;;;;;24.08;6.22;;;;;;;4.22;81.01;101185.22;5073787;28;20407;-72
2022/01/31 00:53:44;;;;;;;22.50;6.43;;;;;;;4.18;82.28;101170.50;5074075;28;20384;-72
2022/01/31 00:56:09;;;;;;;22.30;6.35;;;;;;;4.16;82.72;101169.84;5073511;28;20110;-72
2022/01/31 00:58:35;;;;;;;22.73;6.18;;;;;;;4.14;83.28;101150.47;5073810;28;20117;-72
2022/01/31 01:01:00;;;;;;;17.10;5.70;;;;;;;4.14;83.19;101142.41;5071298;28;20455;-72
2022/01/31 01:03:25;;;;;;;25.65;7.05;;;;;;;4.07;83.96;101127.03;5073849;28;20090;-71
2022/01/31 01:05:50;;;;;;;21.98;6.15;;;;;;;4.07;83.98;101110.97;5073782;28;20035;-71
2022/01/31 01:08:15;;;;;;;25.40;6.93;;;;;;;4.02;84.88;101117.88;5073467;28;20024;-72
2022/01/31 01:10:41;;;;;;;27.77;7.10;;;;;;;4.08;84.32;101112.63;5073691;28;20035;-72
2022/01/31 01:13:07;;;;;;;23.27;7.15;;;;;;;4.04;85.27;101095.25;5073391;28;20112;-72
2022/01/31 01:15:32;;;;;;;24.92;6.80;;;;;;;4.07;85.58;101086.84;5073615;28;20032;-73
2022/01/31 01:17:58;;;;;;;23.55;6.72;;;;;;;4.03;86.55;101082.88;5073053;28;20041;-72
2022/01/31 01:20:24;;;;;;;23.50;6.40;;;;;;;4.01;86.74;101070.66;5073515;28;20039;-72
2022/01/31 01:22:49;;;;;;;25.08;6.93;;;;;;;4.02;87.31;101065.13;5073409;28;20119;-72
2022/01/31 01:25:15;;;;;;;22.02;6.57;;;;;;;4.04;87.86;101052.41;5073196;28;20029;-72
2022/01/31 01:27:43;;;;;;;20.63;6.00;;;;;;;4.11;87.23;101040.97;5073351;28;20028;-72
2022/01/31 01:30:10;;;;;;;20.30;6.35;;;;;;;4.08;87.94;101023.44;5073369;28;20479;-72
2022/01/31 01:32:46;;;;;;;23.38;6.55;;;;;;;4.08;88.27;101018.06;5073321;28;20032;-72
2022/01/31 01:35:12;;;;;;;24.30;6.63;;;;;;;4.12;88.02;101021.22;5073103;28;20474;-72
2022/01/31 01:37:38;;;;;;;22.40;6.28;;;;;;;4.15;88.31;101018.19;5072184;28;20044;-73
2022/01/31 01:40:04;;;;;;;28.40;6.32;;;;;;;4.13;88.70;101012.19;5072674;28;20020;-72
2022/01/31 01:42:30;;;;;;;24.52;7.25;;;;;;;4.19;88.69;100990.03;5073040;28;20025;-72
2022/01/31 01:44:55;;;;;;;24.25;6.93;;;;;;;4.18;89.25;100985.69;5073032;28;20051;-72
2022/01/31 01:47:23;;;;;;;19.77;6.90;;;;;;;4.13;89.56;100980.88;5071508;28;20075;-73
2022/01/31 01:49:50;;;;;;;21.63;6.63;;;;;;;4.13;89.55;100972.00;5073175;28;20028;-73
2022/01/31 01:52:16;;;;;;;19.90;6.32;;;;;;;4.16;88.98;100958.25;5072710;28;20032;-72
2022/01/31 01:54:42;;;;;;;23.17;6.68;;;;;;;4.10;89.88;100938.38;5072014;28;20024;-73
2022/01/31 01:57:07;;;;;;;21.80;6.05;;;;;;;4.20;89.67;100920.22;5072658;28;20044;-73
2022/01/31 01:59:35;;;;;;;25.05;6.63;;;;;;;4.17;90.27;100927.78;5072688;28;20424;-73
2022/01/31 02:02:03;;;;;;;26.63;6.57;;;;;;;4.16;90.83;100907.38;5068845;28;20614;-73
2022/01/31 02:04:29;;;;;;;22.88;6.05;;;;;;;4.18;90.64;100902.66;5072787;28;20158;-72
2022/01/31 02:06:54;;;;;;;22.77;6.03;;;;;;;4.22;90.45;100895.94;5072785;28;20021;-73
2022/01/31 02:09:22;;;;;;;17.15;6.05;;;;;;;4.22;90.54;100890.56;5072416;28;20150;-72
2022/01/31 02:11:47;;;;;;;18.70;6.10;;;;;;;4.25;90.62;100879.50;5071312;28;20115;-72
2022/01/31 02:14:13;;;;;;;21.27;5.72;;;;;;;4.24;90.71;100883.19;5071117;28;20028;-73
2022/01/31 02:16:38;;;;;;;20.65;5.90;;;;;;;4.21;90.94;100871.00;5072422;28;20031;-73
2022/01/31 02:19:03;;;;;;;21.08;5.80;;;;;;;4.19;91.42;100869.50;5072338;28;20029;-72
2022/01/31 02:21:28;;;;;;;15.98;5.95;;;;;;;4.23;91.35;100868.13;5104959;28;20123;-72
2022/01/31 02:23:54;;;;;;;18.88;5.78;;;;;;;4.22;91.99;100856.56;5072561;28;20021;-73
2022/01/31 02:26:19;;;;;;;15.85;5.18;;;;;;;4.35;91.40;100860.47;5072196;28;20036;-72
2022/01/31 02:28:45;;;;;;;15.55;5.70;;;;;;;4.33;91.52;100855.28;5072371;28;20032;-72
2022/01/31 02:31:10;;;;;;;16.17;5.22;;;;;;;4.35;92.15;100868.50;5072026;28;20032;-72
2022/01/31 02:33:35;;;;;;;16.77;5.70;;;;;;;4.41;91.72;100854.38;5072224;28;20032;-73
2022/01/31 02:36:03;;;;;;;14.98;5.82;;;;;;;4.39;92.37;100856.41;5072398;28;20029;-72
2022/01/31 02:38:30;;;;;;;19.77;5.57;;;;;;;4.42;92.54;100861.41;5072215;28;20028;-72
2022/01/31 02:40:55;;;;;;;18.33;6.63;;;;;;;4.44;92.32;100857.53;5071128;28;20028;-73
2022/01/31 02:43:23;;;;;;;15.18;6.07;;;;;;;4.46;92.95;100837.75;5072137;28;20104;-72
2022/01/31 02:45:48;;;;;;;16.52;6.43;;;;;;;4.47;92.71;100826.00;5072336;28;20031;-73
2022/01/31 02:48:16;;;;;;;13.40;5.95;;;;;;;4.54;92.82;100821.56;5072088;28;20024;-73
2022/01/31 02:50:42;;;;;;;12.35;6.22;;;;;;;4.54;93.20;100817.03;5072094;28;20032;-72
2022/01/31 02:53:41;;;;;;;13.40;6.05;;;;;;;4.54;92.78;100817.03;5072100;28;20028;-73
2022/01/31 02:56:00;;;;;;;10.93;5.10;;;;;;;4.66;92.72;100819.25;5069953;28;20045;-73
2022/01/31 02:58:28;;;;;;;12.02;6.10;;;;;;;4.61;93.37;100804.56;5071902;28;20029;-72
2022/01/31 03:00:56;;;;;;;13.48;6.20;;;;;;;4.66;93.59;100813.91;5069951;28;20596;-72
2022/01/31 03:03:22;;;;;;;10.45;5.35;;;;;;;4.72;93.47;100803.25;5071957;28;20044;-73
2022/01/31 03:05:47;;;;;;;15.95;5.05;;;;;;;4.78;94.17;100791.75;5072022;28;20028;-73
2022/01/31 03:08:12;;;;;;;14.43;5.70;;;;;;;4.87;93.50;100810.44;5075604;28;20067;-73
2022/01/31 03:10:38;;;;;;;13.40;5.95;;;;;;;4.89;94.00;100808.38;5075871;28;20030;-72
2022/01/31 03:13:04;;;;;;;17.90;6.40;;;;;;;4.85;93.76;100807.13;5075618;28;20028;-73
2022/01/31 03:15:29;;;;;;;14.90;5.35;;;;;;;4.97;93.80;100810.97;5075664;28;20475;-72
2022/01/31 03:17:55;;;;;;;16.17;5.32;;;;;;;4.99;93.92;100810.78;5075591;28;20103;-73
2022/01/31 03:20:23;;;;;;;17.00;5.35;;;;;;;5.00;93.89;100786.47;5075414;28;20119;-72
2022/01/31 03:22:49;;;;;;;16.38;5.60;;;;;;;5.08;93.63;100790.88;5074501;28;20032;-72
2022/01/31 03:25:15;;;;;;;21.67;5.60;;;;;;;5.07;94.06;100771.28;5074432;28;20032;-77
2022/01/31 03:27:41;;;;;;;15.23;5.70;;;;;;;5.08;93.86;100774.78;5075667;28;20111;-80
2022/01/31 03:30:10;;;;;;;18.58;4.40;;;;;;;5.15;93.25;100779.19;5075466;28;20038;-74
2022/01/31 03:32:36;;;;;;;16.13;4.68;;;;;;;5.19;93.14;100779.63;5075639;28;20033;-74
2022/01/31 03:35:03;;;;;;;18.73;4.95;;;;;;;5.19;93.46;100784.97;5073495;28;20520;-73
2022/01/31 03:37:29;;;;;;;19.45;4.40;;;;;;;5.26;92.60;100774.34;5074784;28;20059;-74
2022/01/31 03:39:54;;;;;;;20.02;4.65;;;;;;;5.27;93.16;100767.97;5075469;28;20460;-72
2022/01/31 03:42:19;;;;;;;12.30;3.33;;;;;;;5.35;92.85;100758.94;5075097;28;20099;-71
2022/01/31 03:44:46;;;;;;;18.00;4.50;;;;;;;5.32;92.58;100760.16;5075387;28;20024;-73
2022/01/31 03:47:14;;;;;;;17.50;4.47;;;;;;;5.26;92.22;100745.66;5074729;28;20491;-74
2022/01/31 03:49:39;;;;;;;16.92;4.38;;;;;;;5.27;92.48;100741.13;5075188;28;20025;-73
2022/01/31 03:52:05;;;;;;;19.42;4.28;;;;;;;5.25;92.63;100749.34;5073928;28;20037;-74
2022/01/31 03:54:30;;;;;;;24.73;4.10;;;;;;;5.41;91.25;100750.94;5075029;28;20380;-73
2022/01/31 03:56:55;;;;;;;17.63;4.10;;;;;;;5.44;90.76;100742.50;5074867;28;20112;-74
2022/01/31 03:59:21;;;;;;;15.43;3.28;;;;;;;5.44;90.49;100757.78;5074390;28;20044;-73
2022/01/31 04:01:46;;;;;;;19.55;3.88;;;;;;;5.53;90.13;100758.47;5072752;28;20159;-73
2022/01/31 04:04:13;;;;;;;25.27;4.63;;;;;;;5.50;90.20;100760.50;5073536;28;20029;-73
2022/01/31 04:06:39;;;;;;;19.40;3.45;;;;;;;5.57;89.18;100757.03;5074977;28;20526;-72
2022/01/31 04:09:04;;;;;;;18.98;3.60;;;;;;;5.52;89.86;100784.47;5074637;28;20120;-73
2022/01/31 04:11:30;;;;;;;16.33;3.35;;;;;;;5.63;88.34;100772.38;5074389;28;20082;-74
2022/01/31 04:13:55;;;;;;;22.77;3.92;;;;;;;5.59;88.56;100755.84;5074839;28;20086;-72
2022/01/31 04:16:20;;;;;;;19.15;4.25;;;;;;;5.59;88.88;100760.38;5074332;28;20040;-73
2022/01/31 04:18:46;;;;;;;19.27;3.78;;;;;;;5.62;88.30;100754.63;5074057;28;20032;-73
2022/01/31 04:21:12;;;;;;;17.52;3.47;;;;;;;5.63;87.26;100758.94;5073268;28;20032;-73
2022/01/31 04:23:38;;;;;;;16.88;3.50;;;;;;;5.71;86.65;100734.66;5074754;28;20090;-71
2022/01/31 04:26:10;;;;;;;18.08;3.92;;;;;;;5.70;85.74;100742.91;5074640;28;20414;-73
2022/01/31 04:29:02;;;;;;;22.85;3.30;;;;;;;5.68;85.82;100738.56;5074557;28;20029;-72
2022/01/31 04:31:37;;;;;;;21.13;3.92;;;;;;;5.65;86.12;100743.50;5073853;28;20533;-74
2022/01/31 04:34:03;;;;;;;15.30;3.08;;;;;;;5.66;85.28;100739.75;5073471;28;20403;-72
2022/01/31 04:36:28;;;;;;;22.98;3.63;;;;;;;5.75;84.82;100738.63;5073121;28;20036;-74
2022/01/31 04:38:53;;;;;;;15.65;2.85;;;;;;;5.71;83.67;100752.59;5074308;28;20115;-74
2022/01/31 04:41:20;;;;;;;18.92;3.28;;;;;;;5.79;83.32;100729.13;5074006;28;20021;-72
2022/01/31 04:43:48;;;;;;;20.95;3.58;;;;;;;5.70;82.49;100729.50;5074274;28;20028;-73
2022/01/31 04:46:13;;;;;;;15.13;2.88;;;;;;;5.69;82.84;100739.38;5073974;28;20036;-72
2022/01/31 04:48:38;;;;;;;20.38;3.58;;;;;;;5.66;82.86;100718.28;5073852;28;20029;-71
2022/01/31 04:51:03;;;;;;;21.38;2.92;;;;;;;5.62;83.00;100735.84;5074006;28;20028;-73
2022/01/31 04:53:29;;;;;;;20.63;3.38;;;;;;;5.63;82.72;100721.38;5073794;28;20107;-73
2022/01/31 04:55:55;;;;;;;17.98;3.97;;;;;;;5.65;81.88;100741.63;5074049;28;20025;-73
2022/01/31 04:58:22;;;;;;;18.20;3.08;;;;;;;5.64;81.61;100748.03;5074015;28;20032;-72
2022/01/31 05:00:48;;;;;;;18.70;2.83;;;;;;;5.57;82.24;100738.25;5071481;28;20203;-72
2022/01/31 05:03:16;;;;;;;20.90;3.67;;;;;;;5.64;80.38;100741.84;5073321;28;20025;-74
2022/01/31 05:05:43;;;;;;;17.08;3.50;;;;;;;5.56;81.85;100726.69;5073850;28;20036;-73
2022/01/31 05:08:08;;;;;;;16.63;3.33;;;;;;;5.66;80.64;100745.13;5073811;28;20036;-72
2022/01/31 05:10:35;;;;;;;16.15;2.72;;;;;;;5.63;80.38;100740.16;5073476;28;20036;-72
2022/01/31 05:13:01;;;;;;;20.48;3.22;;;;;;;5.56;80.41;100717.84;5073464;28;20033;-73
2022/01/31 05:15:26;;;;;;;14.32;2.70;;;;;;;5.68;79.36;100716.25;5073240;28;20033;-74
2022/01/31 05:17:51;;;;;;;23.67;3.30;;;;;;;5.63;79.24;100702.56;5073358;28;20029;-73
2022/01/31 05:20:17;;;;;;;23.75;3.63;;;;;;;5.58;79.87;100711.22;5073336;28;20360;-71
2022/01/31 05:22:42;;;;;;;15.63;2.97;;;;;;;5.66;79.13;100699.50;5073468;28;20024;-73
2022/01/31 05:25:08;;;;;;;21.00;3.30;;;;;;;5.59;79.94;100695.97;5073207;28;20020;-73
2022/01/31 05:27:33;;;;;;;19.48;3.20;;;;;;;5.59;79.74;100701.34;5071619;28;20119;-72
2022/01/31 05:29:58;;;;;;;17.92;2.80;;;;;;;5.68;78.86;100694.78;5072906;28;20040;-72
2022/01/31 05:32:23;;;;;;;16.50;3.45;;;;;;;5.67;77.33;100693.13;5073430;28;20033;-72
2022/01/31 05:34:49;;;;;;;20.02;3.20;;;;;;;5.67;77.91;100687.75;5073035;28;20516;-74
2022/01/31 05:37:14;;;;;;;13.00;2.70;;;;;;;5.72;77.60;100685.28;5073276;28;20028;-74
2022/01/31 05:39:40;;;;;;;18.98;3.28;;;;;;;5.72;78.58;100679.09;5072803;28;20031;-71
2022/01/31 05:42:05;;;;;;;17.45;2.90;;;;;;;5.59;79.79;100666.44;5073079;28;20062;-71
2022/01/31 05:44:31;;;;;;;13.57;2.72;;;;;;;5.67;78.64;100668.94;5072830;28;20085;-73
2022/01/31 05:46:57;;;;;;;22.63;3.60;;;;;;;5.58;79.24;100662.09;5072801;28;20163;-72
2022/01/31 05:49:22;;;;;;;19.95;3.80;;;;;;;5.52;81.02;100662.88;5072370;28;20487;-73
2022/01/31 05:52:04;;;;;;;19.23;3.80;;;;;;;5.60;79.81;100657.34;5071415;28;20037;-72
2022/01/31 05:54:30;;;;;;;17.63;3.83;;;;;;;5.46;81.14;100649.19;5071437;28;20056;-74
2022/01/31 05:56:56;;;;;;;14.18;2.88;;;;;;;5.56;80.54;100656.09;5073181;28;20178;-73
2022/01/31 05:59:21;;;;;;;17.98;3.20;;;;;;;5.40;81.69;100671.44;5072347;28;20123;-74
2022/01/31 06:01:47;;;;;;;22.30;3.70;;;;;;;5.33;82.82;100678.63;5070291;28;20039;-73
2022/01/31 06:04:12;;;;;;;16.75;3.53;;;;;;;5.33;82.88;100698.25;5072824;28;20021;-72
2022/01/31 06:06:37;;;;;;;14.30;2.75;;;;;;;5.30;82.78;100703.19;5072583;28;20387;-73
2022/01/31 06:09:04;;;;;;;20.77;3.60;;;;;;;5.22;83.07;100700.63;5072809;28;20361;-72
2022/01/31 06:11:31;;;;;;;18.13;3.42;;;;;;;5.11;84.14;100694.75;5072597;28;20035;-73
2022/01/31 06:13:57;;;;;;;19.98;3.60;;;;;;;5.03;85.44;100707.44;5072423;28;20028;-74
2022/01/31 06:16:22;;;;;;;17.92;3.45;;;;;;;4.98;86.13;100699.97;5072453;28;20380;-73
2022/01/31 06:18:48;;;;;;;17.75;3.90;;;;;;;5.10;84.88;100703.84;5072633;28;20034;-72
2022/01/31 06:21:13;;;;;;;21.25;3.30;;;;;;;4.93;85.92;100697.06;5072581;28;20025;-74
2022/01/31 06:23:40;;;;;;;19.13;3.38;;;;;;;4.92;86.70;100706.13;5072315;28;20028;-73
2022/01/31 06:26:06;;;;;;;23.80;3.47;;;;;;;4.91;86.23;100709.84;5072852;28;20525;-73
2022/01/31 06:28:32;;;;;;;17.67;3.08;;;;;;;4.82;86.27;100693.03;5072266;28;20079;-72
2022/01/31 06:30:58;;;;;;;16.20;2.90;;;;;;;5.02;83.96;100711.19;5072502;28;20033;-74
2022/01/31 06:33:23;;;;;;;19.30;3.80;;;;;;;4.94;84.79;100702.22;5071928;28;20035;-73
2022/01/31 06:35:48;;;;;;;18.63;3.17;;;;;;;4.97;83.98;100698.34;5072452;28;20025;-71
2022/01/31 06:38:13;;;;;;;17.50;3.67;;;;;;;5.06;82.40;100694.50;5072425;28;20036;-72
2022/01/31 06:40:40;;;;;;;13.98;2.45;;;;;;;4.97;82.83;100699.16;5070871;28;20487;-73
2022/01/31 06:43:05;;;;;;;13.82;2.90;;;;;;;5.03;82.62;100672.59;5076514;28;20032;-72
2022/01/31 06:45:30;;;;;;;13.75;3.35;;;;;;;4.97;82.92;100690.31;5076255;28;20036;-72
2022/01/31 06:47:56;;;;;;;15.43;2.72;;;;;;;4.94;82.95;100706.78;5076727;28;20039;-72
2022/01/31 06:50:21;;;;;;;19.30;3.30;;;;;;;4.93;83.31;100692.50;5076090;28;20032;-73
2022/01/31 06:52:50;;;;;;;18.70;3.30;;;;;;;4.93;83.27;100713.97;5076419;28;20456;-71
2022/01/31 06:55:19;;;;;;;17.23;3.20;;;;;;;4.88;83.95;100694.94;5076347;28;20448;-72
2022/01/31 06:57:45;;;;;;;15.50;3.53;;;;;;;4.86;83.26;100696.16;5074988;28;20107;-72
2022/01/31 07:00:12;;;;;;;21.08;4.03;;;;;;;4.84;83.34;100703.56;5075867;28;20156;-72
2022/01/31 07:02:38;;;;;;;17.58;3.10;;;;;;;4.85;82.84;100695.34;5073550;28;20408;-73
2022/01/31 07:05:04;;;;;;;19.10;3.83;;;;;;;4.78;84.05;100708.66;5074867;28;20024;-73
2022/01/31 07:07:30;;;;;;;18.55;3.70;;;;;;;4.77;83.99;100684.72;5076132;28;20030;-71
2022/01/31 07:09:55;;;;;;;19.70;3.35;;;;;;;4.76;84.38;100712.56;5076027;28;20454;-72
2022/01/31 07:12:31;;;;;;;12.40;2.95;;;;;;;4.85;83.32;100699.88;5075754;28;20036;-73
2022/01/31 07:14:56;;;;;;;22.10;4.13;;;;;;;4.82;84.14;100684.19;5075686;28;20033;-72
2022/01/31 07:17:21;;;;;;;20.42;3.72;;;;;;;4.78;84.06;100687.22;5075407;28;20392;-72
2022/01/31 07:19:47;;;;;;;17.45;3.03;;;;;;;4.77;83.73;100677.53;5075616;28;20048;-72
2022/01/31 07:22:14;;;;;;;19.13;3.33;;;;;;;4.77;84.67;100671.31;5075717;28;20028;-72
2022/01/31 07:27:06;;;;;;;17.85;3.17;;;;;;;4.81;84.64;100667.25;5075683;28;20039;-72
2022/01/31 07:29:31;;;;;;;17.20;3.42;;;;;;;4.72;84.95;100674.56;5075188;28;20025;-71
2022/01/31 07:31:58;;;;;;;17.92;3.80;;;;;;;4.69;85.17;100663.41;5075333;28;20082;-72
2022/01/31 07:34:24;;;;;;;21.95;3.33;;;;;;;4.71;84.79;100662.22;5074085;28;20094;-72
2022/01/31 07:36:51;;;;;;;18.02;3.20;;;;;;;4.71;84.84;100672.94;5075507;28;20032;-72
2022/01/31 07:39:17;;;;;;;21.05;4.70;;;;;;;4.82;83.68;100692.22;5075230;28;20039;-73
2022/01/31 07:41:43;;;;;;;21.90;3.50;;;;;;;4.81;83.72;100703.94;5075121;28;20056;-72
2022/01/31 07:44:09;;;;;;;19.13;4.18;;;;;;;4.79;84.55;100713.00;5075373;28;20141;-73
2022/01/31 07:46:35;;;;;;;28.92;4.70;;;;;;;4.70;85.54;100706.09;5075069;28;20460;-73
2022/01/31 07:49:00;;;;;;;19.10;3.67;;;;;;;4.72;84.85;100706.75;5075316;28;20028;-72
2022/01/31 07:51:25;;;;;;;17.85;3.50;;;;;;;4.77;85.12;100692.75;5074866;28;20116;-72
2022/01/31 07:53:51;;;;;;;31.65;4.75;;;;;;;4.77;84.18;100741.00;5075229;28;20371;-72
2022/01/31 07:56:17;;;;;;;23.42;4.25;;;;;;;4.72;85.04;100712.09;5075209;28;20051;-72
2022/01/31 07:58:43;;;;;;;25.35;4.78;;;;;;;4.73;85.22;100708.41;5075048;28;20040;-72
2022/01/31 08:01:09;;;;;;;17.30;3.15;;;;;;;4.77;84.49;100708.84;5072645;28;20029;-73
2022/01/31 08:03:35;;;;;;;27.02;4.25;;;;;;;4.75;84.37;100711.72;5074893;28;20016;-73
2022/01/31 08:06:02;;;;;;;24.38;4.32;;;;;;;4.72;84.91;100712.09;5075281;28;20209;-72
2022/01/31 08:08:29;;;;;;;26.70;4.03;;;;;;;4.73;84.48;100695.00;5074701;28;20201;-72
2022/01/31 08:10:56;;;;;;;25.73;3.60;;;;;;;4.84;83.52;100703.56;5073585;28;20455;-72
2022/01/31 08:13:24;;;;;;;23.00;3.95;;;;;;;4.80;84.28;100708.47;5074821;28;20036;-73
2022/01/31 08:16:02;;;;;;;24.90;4.55;;;;;;;4.82;83.76;100697.59;5074803;28;20031;-72
2022/01/31 08:18:28;;;;;;;28.52;4.22;;;;;;;4.82;83.93;100692.22;5074252;28;20043;-72
2022/01/31 08:20:53;;;;;;;24.90;3.90;;;;;;;4.85;83.55;100715.97;5074410;28;20032;-73
2022/01/31 08:23:18;;;;;;;21.10;3.88;;;;;;;4.88;83.33;100723.63;5074538;28;20116;-73
2022/01/31 08:25:48;;;;;;;30.50;5.35;;;;;;;4.89;84.12;100725.25;5074381;28;20032;-73
2022/01/31 08:28:14;;;;;;;25.98;4.38;;;;;;;4.78;85.04;100742.69;5074475;28;20475;-73
2022/01/31 08:30:51;;;;;;;29.92;5.07;;;;;;;4.90;83.53;100725.06;5072866;28;20024;-73
2022/01/31 08:36:12;;;;;;;27.00;4.50;;;;;;;4.91;83.59;100731.28;5054331;28;20041;-73
2022/01/31 08:38:39;;;;;;;32.65;4.90;;;;;;;4.83;83.92;100736.75;5074216;28;20116;-73
2022/01/31 08:41:06;;;;;;;30.38;4.45;;;;;;;4.81;84.70;100728.09;5074201;28;20036;-72
2022/01/31 08:43:33;;;;;;;25.63;5.28;;;;;;;4.79;85.00;100729.09;5073912;28;20111;-73
2022/01/31 08:46:00;;;;;;;28.80;5.00;;;;;;;4.83;84.34;100744.78;5072768;28;20044;-72
2022/01/31 08:48:27;;;;;;;31.48;4.93;;;;;;;4.84;84.27;100730.38;5073832;28;20035;-72
2022/01/31 08:50:53;;;;;;;27.58;4.80;;;;;;;4.88;84.08;100735.16;5074151;28;20085;-72
2022/01/31 08:53:19;;;;;;;30.65;4.70;;;;;;;4.91;83.42;100725.94;5074099;28;20028;-72
2022/01/31 08:55:51;;;;;;;29.73;5.10;;;;;;;4.90;84.33;100725.06;5073910;28;20486;-72
2022/01/31 08:58:17;;;;;;;26.67;4.35;;;;;;;4.91;83.61;100728.59;5074231;28;20103;-72
2022/01/31 09:00:44;;;;;;;30.13;4.22;;;;;;;4.89;84.33;100742.22;5071342;28;20135;-72
2022/01/31 09:05:39;;;;;;;29.17;4.75;;;;;;;4.94;83.65;100765.75;5073065;28;20152;-72
2022/01/31 09:08:05;;;;;;;25.15;4.70;;;;;;;4.96;83.96;100755.66;5073718;28;20040;-73
2022/01/31 09:10:30;;;;;;;26.67;4.95;;;;;;;4.89;85.19;100765.50;5073413;28;20028;-72
2022/01/31 09:12:56;;;;;;;30.20;5.72;;;;;;;4.84;86.05;100766.06;5072349;28;20162;-73
2022/01/31 09:15:22;;;;;;;21.40;4.13;;;;;;;4.83;86.24;100776.97;5073587;28;20025;-73
2022/01/31 09:17:48;;;;;;;23.90;4.57;;;;;;;4.91;84.72;100775.00;5073387;28;20032;-74
2022/01/31 09:20:13;;;;;;;29.80;4.82;;;;;;;4.87;85.04;100767.53;5072196;28;20028;-74
2022/01/31 09:22:39;;;;;;;19.75;4.47;;;;;;;4.86;85.19;100781.94;5073199;28;20375;-72
2022/01/31 09:25:05;;;;;;;22.23;4.45;;;;;;;4.94;83.39;100750.50;5073403;28;20025;-73
2022/01/31 09:27:30;;;;;;;27.75;4.60;;;;;;;4.90;84.41;100743.03;5073138;28;20021;-72
2022/01/31 09:29:56;;;;;;;28.63;4.40;;;;;;;4.83;84.83;100764.41;5073395;28;20192;-72
2022/01/31 09:32:24;;;;;;;31.27;4.38;;;;;;;4.96;84.11;100755.66;5073339;28;20531;-72
2022/01/31 09:34:50;;;;;;;30.20;4.25;;;;;;;4.94;83.52;100771.13;5073030;28;20483;-74
2022/01/31 09:37:15;;;;;;;25.45;4.38;;;;;;;4.91;84.48;100763.47;5073046;28;20125;-75
2022/01/31 09:39:43;;;;;;;28.70;4.10;;;;;;;4.95;84.76;100754.00;5071564;28;20472;-73
2022/01/31 09:42:12;;;;;;;34.53;5.30;;;;;;;4.90;85.42;100764.47;5072975;28;20471;-74
2022/01/31 09:47:24;;;;;;;29.73;4.93;;;;;;;4.96;84.48;100771.75;5073064;28;20033;-74
2022/01/31 09:49:51;;;;;;;22.70;4.68;;;;;;;4.91;85.28;100768.84;5072564;28;20035;-72
2022/01/31 09:52:16;;;;;;;37.30;5.10;;;;;;;4.92;85.63;100808.00;5071599;28;20472;-73
2022/01/31 09:54:43;;;;;;;25.63;5.40;;;;;;;4.91;85.47;100851.97;5072986;28;20111;-74
2022/01/31 09:57:08;;;;;;;28.73;4.72;;;;;;;4.84;86.09;100816.19;5073072;28;20158;-73
2022/01/31 09:59:33;;;;;;;26.73;5.20;;;;;;;4.77;86.32;100810.72;5072223;28;20119;-75
2022/01/31 10:02:08;;;;;;;30.85;5.53;;;;;;;4.78;85.99;100842.69;5070007;28;20036;-73
2022/01/31 10:04:43;;;;;;;29.73;5.03;;;;;;;4.76;85.74;100860.84;5072235;28;20082;-72
2022/01/31 10:07:08;;;;;;;26.23;4.50;;;;;;;4.76;85.89;100833.22;5072710;28;20472;-74
2022/01/31 10:09:34;;;;;;;36.72;6.38;;;;;;;4.72;86.25;100838.09;5072728;28;20028;-72
2022/01/31 10:12:27;;;;;;;35.63;5.82;;;;;;;4.82;85.74;100850.41;5072642;28;20032;-73
2022/01/31 10:17:38;;;;;;;34.80;5.78;;;;;;;4.90;84.25;100847.59;5071931;28;20048;-74
2022/01/31 10:20:18;;;;;;;40.80;5.82;;;;;;;4.71;85.78;100831.09;5071307;28;20031;-74
2022/01/31 10:22:44;;;;;;;40.20;6.75;;;;;;;4.81;85.74;100838.00;5072016;28;20471;-72
2022/01/31 10:25:16;;;;;;;34.88;5.72;;;;;;;4.78;85.67;100853.44;5072553;28;20063;-74
2022/01/31 10:27:52;;;;;;;34.70;5.95;;;;;;;4.75;86.22;100883.28;5070652;28;20039;-72
2022/01/31 10:30:21;;;;;;;34.58;5.88;;;;;;;4.91;83.64;100908.28;5071223;28;20028;-74
2022/01/31 10:32:48;;;;;;;33.17;6.28;;;;;;;5.10;80.23;100880.88;5072209;28;20028;-73
2022/01/31 10:35:18;;;;;;;41.33;6.90;;;;;;;5.12;80.33;100910.19;5072442;28;20033;-74
2022/01/31 10:37:45;;;;;;;35.63;7.18;;;;;;;5.02;80.93;100890.88;5070845;28;20157;-75
2022/01/31 10:45:55;;;;;;;39.10;5.97;;;;;;;5.12;79.17;100904.81;5072122;28;20079;-75
2022/01/31 10:51:59;;;;;;;32.13;6.68;;;;;;;5.12;79.45;100899.47;5072241;28;20049;-72
2022/01/31 10:56:53;;;;;;;31.08;6.20;;;;;;;5.14;79.18;100902.78;5071930;28;20086;-75
2022/01/31 10:59:38;;;;;;;35.67;5.78;;;;;;;5.13;80.63;100928.78;5072089;28;20049;-75
2022/01/31 11:02:07;;;;;;;31.92;4.60;;;;;;;5.03;80.69;100922.88;5068365;28;20032;-74
2022/01/31 11:04:40;;;;;;;31.58;5.88;;;;;;;5.11;80.59;100938.84;5072187;28;20082;-74
2022/01/31 11:07:10;;;;;;;30.83;5.15;;;;;;;5.03;79.76;100930.06;5072121;28;20032;-74
2022/01/31 11:09:37;;;;;;;31.30;5.07;;;;;;;4.93;81.22;100906.22;5071811;28;20086;-75
2022/01/31 11:12:04;;;;;;;33.33;5.70;;;;;;;4.91;81.78;100909.09;5072012;28;20111;-74
2022/01/31 11:14:29;;;;;;;34.30;6.18;;;;;;;4.92;80.45;100921.50;5070764;28;20032;-73
2022/01/31 11:16:55;;;;;;;41.03;6.10;;;;;;;4.91;81.02;100919.81;5071800;28;20078;-75
2022/01/31 11:19:30;;;;;;;28.23;5.65;;;;;;;4.93;81.28;100947.25;5072207;28;20036;-74
2022/01/31 11:22:01;;;;;;;35.58;6.18;;;;;;;4.92;81.74;100934.91;5070363;28;20029;-74
2022/01/31 11:24:32;;;;;;;40.10;7.13;;;;;;;4.93;82.69;100952.63;5072038;28;20069;-73
2022/01/31 11:27:09;;;;;;;37.70;5.85;;;;;;;5.00;82.07;100928.59;5072330;28;20495;-71
2022/01/31 11:29:43;;;;;;;34.08;5.93;;;;;;;5.01;82.46;100946.34;5074260;28;20035;-75
2022/01/31 11:32:10;;;;;;;38.88;6.95;;;;;;;4.96;82.43;100944.22;5075567;28;20032;-73
2022/01/31 11:34:39;;;;;;;41.28;5.95;;;;;;;4.97;82.39;100969.19;5073719;28;20131;-74
2022/01/31 11:37:08;;;;;;;31.63;6.47;;;;;;;4.91;83.03;100954.69;5075729;28;20029;-72
2022/01/31 11:39:33;;;;;;;30.50;6.03;;;;;;;4.90;82.44;100979.00;5075435;28;20028;-73
2022/01/31 11:42:01;;;;;;;32.63;6.63;;;;;;;4.94;81.63;100989.16;5073843;28;20035;-72
2022/01/31 11:44:40;;;;;;;38.03;6.68;;;;;;;5.01;81.54;100989.25;5075367;28;20036;-74
2022/01/31 11:47:08;;;;;;;34.47;6.07;;;;;;;4.88;82.86;100967.63;5075581;28;20028;-74
2022/01/31 11:49:52;;;;;;;40.47;6.88;;;;;;;4.92;83.24;100947.44;5074930;28;20395;-72